^^
Station Historical Data
 
Daily Summary for July 21, 2018 Units:  English    Metric   Both
« Previous Day
Next Day »
Daily Weekly Monthly Yearly Custom
  Current: High: Low: Average:
Temperature: 66.9 °F TemperatureF °F 66.9 °F 68.1 °F
Dew Point: 65.5 °F DewpointF °F 65.1 °F 65.8 °F
Humidity: 95% Humidity% 88% 91%
Wind Speed: 19.0mph WindSpeedMPHmph 0.0mph 1mph
Wind Gust: 19.0mph WindSpeedGustMPHmph - -
WindNNW - - SW
Pressure: 29.95 in PressureIn in 29.81 in -
Precipitation: 1.63 in      
Historical Graphs
 
 
Tabular Data for July 21, 2018
Time Temperature Dew Point Pressure Wind Wind Speed Wind Gust Humidity Rainfall Rate (Hourly)
TemperatureF °F DewpointF °F PressureIn in Calm     Humidity% HourlyPrecipIn in
00:04 70.0 °F 67.5 °F 29.95 in Calm     92% 0.00 in
00:09 70.0 °F 67.5 °F 29.95 in Calm     92% 0.00 in
00:14 70.0 °F 67.5 °F 29.94 in Calm     92% 0.00 in
00:19 69.8 °F 67.3 °F 29.94 in Calm     92% 0.00 in
00:24 69.8 °F 67.3 °F 29.94 in Calm     92% 0.00 in
00:29 70.0 °F 67.5 °F 29.94 in Calm     92% 0.00 in
00:34 70.0 °F 67.5 °F 29.94 in Calm     92% 0.00 in
00:39 70.0 °F 67.8 °F 29.93 in Calm     93% 0.00 in
00:44 70.0 °F 67.5 °F 29.94 in Calm     92% 0.00 in
00:49 69.8 °F 67.3 °F 29.94 in Calm     92% 0.00 in
00:54 69.6 °F 67.3 °F 29.94 in Calm     92% 0.00 in
00:59 69.6 °F 67.3 °F 29.94 in Calm     92% 0.00 in
01:04 69.6 °F 67.3 °F 29.94 in Calm     92% 0.00 in
01:09 70.0 °F 67.5 °F 29.95 in Calm     92% 0.00 in
01:14 70.0 °F 67.8 °F 29.95 in Calm     93% 0.00 in
01:19 70.0 °F 67.5 °F 29.94 in Calm     92% 0.00 in
01:24 70.0 °F 67.5 °F 29.94 in Calm     92% 0.00 in
01:29 70.0 °F 67.5 °F 29.94 in Calm     92% 0.00 in
01:34 70.0 °F 67.5 °F 29.94 in Calm     92% 0.00 in
01:39 70.0 °F 67.5 °F 29.94 in Calm     92% 0.00 in
01:44 70.0 °F 67.5 °F 29.94 in Calm     92% 0.00 in
01:49 70.0 °F 67.5 °F 29.94 in Calm     92% 0.00 in
01:54 69.8 °F 67.3 °F 29.93 in Calm     92% 0.00 in
01:59 70.0 °F 67.5 °F 29.93 in Calm     92% 0.00 in
02:04 70.0 °F 67.5 °F 29.93 in Calm     92% 0.00 in
02:09 70.0 °F 67.5 °F 29.93 in Calm     92% 0.00 in
02:14 70.0 °F 67.5 °F 29.93 in Calm     92% 0.00 in
02:19 70.0 °F 67.5 °F 29.92 in Calm     92% 0.00 in
02:24 70.0 °F 67.5 °F 29.92 in Calm     92% 0.00 in
02:29 70.0 °F 67.5 °F 29.91 in Calm     92% 0.00 in
02:34 70.0 °F 67.5 °F 29.91 in Calm     92% 0.00 in
02:39 70.2 °F 67.6 °F 29.90 in Calm     92% 0.00 in
02:44 70.0 °F 67.5 °F 29.90 in Calm     92% 0.00 in
02:49 70.0 °F 67.5 °F 29.89 in Calm     92% 0.00 in
02:54 70.0 °F 67.5 °F 29.89 in Calm     92% 0.00 in
02:59 70.0 °F 67.5 °F 29.88 in Calm     92% 0.00 in
03:04 70.2 °F 67.6 °F 29.88 in Calm     92% 0.00 in
03:09 70.3 °F 68.2 °F 29.89 in WNW 0.9 mph 3.0 mph 93% 0.00 in
03:14 70.5 °F 68.0 °F 29.92 in NE 10.1 mph 10.0 mph 92% 0.00 in
03:19 70.5 °F 67.1 °F 29.92 in NNW 2.9 mph 8.0 mph 89% 0.00 in
03:24 70.3 °F 66.6 °F 29.93 in Calm   3.0 mph 88% 0.00 in
03:29 70.3 °F 66.9 °F 29.92 in Calm     89% 0.00 in
03:34 70.0 °F 66.6 °F 29.91 in Calm   1.0 mph 89% 0.01 in
03:39 69.4 °F 66.4 °F 29.92 in Calm   8.0 mph 90% 0.05 in
03:44 69.1 °F 66.4 °F 29.91 in Calm   1.0 mph 91% 0.13 in
03:49 68.5 °F 66.2 °F 29.90 in Calm   2.0 mph 92% 0.15 in
03:54 68.2 °F 65.8 °F 29.90 in Calm     92% 0.18 in
03:59 67.8 °F 65.7 °F 29.88 in Calm   1.0 mph 93% 0.20 in
04:04 67.6 °F 65.5 °F 29.87 in Calm   4.0 mph 93% 0.21 in
04:09 67.6 °F 65.8 °F 29.90 in NW 4.0 mph 5.0 mph 94% 0.21 in
04:14 67.6 °F 65.8 °F 29.91 in Calm   8.0 mph 94% 0.21 in
04:19 67.5 °F 65.7 °F 29.92 in WNW 8.9 mph 14.0 mph 94% 0.46 in
04:24 67.1 °F 65.3 °F 29.89 in Calm   2.0 mph 94% 0.93 in
04:29 67.3 °F 65.5 °F 29.85 in SE 4.0 mph 5.0 mph 94% 1.03 in
04:34 67.1 °F 65.3 °F 29.84 in SE 4.0 mph 5.0 mph 94% 1.06 in
04:39 67.1 °F 65.3 °F 29.86 in Calm   2.0 mph 94% 1.04 in
04:44 66.9 °F 65.1 °F 29.84 in Calm   1.0 mph 94% 0.97 in
04:49 66.9 °F 65.5 °F 29.82 in SE 0.9 mph 1.0 mph 95% 0.95 in
04:54 66.9 °F 65.5 °F 29.83 in Calm   4.0 mph 95% 0.94 in
04:59 66.9 °F 65.5 °F 29.83 in Calm   1.0 mph 95% 0.92 in
05:04 66.9 °F 65.5 °F 29.81 in SE 2.0 mph 2.0 mph 95% 0.91 in
05:09 66.9 °F 65.5 °F 29.81 in Calm     95% 0.91 in
05:14 67.1 °F 65.7 °F 29.81 in Calm   1.0 mph 95% 0.92 in
05:19 67.5 °F 66.0 °F 29.85 in West 4.0 mph 9.0 mph 95% 0.70 in
05:24 67.5 °F 66.0 °F 29.90 in NW 8.1 mph 12.0 mph 95% 0.33 in
05:29 66.9 °F 65.5 °F 29.95 in NNW 19.0 mph 19.0 mph 95% 0.60 in
Ellijay Weather
Compliments of Weather Underground - 1.5 mb